createdAt,value
2019-05-13T00:00:33.858Z,13.40
2019-05-13T00:03:04.012Z,13.40
2019-05-13T00:05:34.869Z,13.40
2019-05-13T00:08:05.768Z,13.40
2019-05-13T00:10:36.434Z,13.40
2019-05-13T00:13:07.435Z,13.40
2019-05-13T00:15:38.354Z,13.40
2019-05-13T00:18:09.099Z,13.50
2019-05-13T00:20:39.859Z,13.50
2019-05-13T00:23:10.669Z,13.60
2019-05-13T00:25:44.196Z,13.70
2019-05-13T00:28:14.611Z,13.70
2019-05-13T00:30:45.355Z,13.80
2019-05-13T00:33:16.279Z,13.70
2019-05-13T00:35:47.164Z,13.70
2019-05-13T00:38:17.975Z,13.70
2019-05-13T00:40:48.691Z,13.70
2019-05-13T00:43:19.804Z,13.70
2019-05-13T00:45:50.615Z,13.70
2019-05-13T00:48:23.378Z,13.70
2019-05-13T00:50:54.542Z,13.80
2019-05-13T00:53:25.464Z,13.90
2019-05-13T00:55:56.210Z,13.90
2019-05-13T00:58:27.178Z,13.80
2019-05-13T01:00:57.987Z,13.70
2019-05-13T01:03:28.691Z,13.80
2019-05-13T01:05:59.562Z,13.70
2019-05-13T01:08:30.221Z,13.70
2019-05-13T01:11:01.157Z,13.70
2019-05-13T01:13:34.049Z,13.70
2019-05-13T01:16:04.302Z,13.60
2019-05-13T01:18:35.183Z,13.50
2019-05-13T01:21:06.187Z,13.50
2019-05-13T01:23:36.942Z,13.50
2019-05-13T01:26:07.792Z,13.40
2019-05-13T01:28:38.478Z,13.40
2019-05-13T01:31:09.211Z,13.30
2019-05-13T01:33:40.062Z,13.30
2019-05-13T01:36:13.247Z,13.20
2019-05-13T01:38:43.656Z,13.30
2019-05-13T01:41:14.516Z,13.20
2019-05-13T01:43:45.247Z,13.20
2019-05-13T01:46:16.041Z,13.10
2019-05-13T01:48:46.936Z,13.10
2019-05-13T01:51:17.822Z,13.00
2019-05-13T01:53:49.032Z,13.00
2019-05-13T01:56:19.871Z,13.10
2019-05-13T01:58:50.626Z,13.00
2019-05-13T02:01:21.420Z,13.00
2019-05-13T02:03:54.382Z,12.90
2019-05-13T02:06:24.776Z,12.60
2019-05-13T02:08:55.630Z,12.60
2019-05-13T02:11:26.390Z,12.60
2019-05-13T02:13:57.341Z,12.70
2019-05-13T02:16:28.375Z,12.70
2019-05-13T02:18:59.120Z,12.80
2019-05-13T02:21:29.845Z,12.80
2019-05-13T02:24:00.584Z,12.80
2019-05-13T02:26:31.490Z,12.80
2019-05-13T02:29:03.802Z,12.60
2019-05-13T02:31:45.538Z,12.50
2019-05-13T02:34:07.281Z,12.50
2019-05-13T02:36:38.130Z,12.50
2019-05-13T02:39:12.707Z,12.50
2019-05-13T02:41:43.197Z,12.50
2019-05-13T02:44:14.475Z,12.50
2019-05-13T02:46:45.512Z,12.30
2019-05-13T02:49:16.321Z,12.30
2019-05-13T02:51:47.220Z,12.30
2019-05-13T02:54:18.148Z,12.50
2019-05-13T02:56:48.935Z,12.60
2019-05-13T02:59:22.441Z,12.50
2019-05-13T03:01:53.341Z,12.40
2019-05-13T03:04:24.415Z,12.30
2019-05-13T03:06:55.281Z,12.30
2019-05-13T03:09:26.061Z,12.30
2019-05-13T03:11:56.762Z,12.30
2019-05-13T03:14:27.694Z,12.30
2019-05-13T03:17:22.230Z,12.40
2019-05-13T03:19:52.959Z,12.40
2019-05-13T03:22:24.264Z,12.40
2019-05-13T03:24:55.262Z,12.40
2019-05-13T03:27:26.205Z,12.40
2019-05-13T03:29:57.115Z,12.40
2019-05-13T03:32:36.019Z,12.40
2019-05-13T03:35:06.393Z,12.30
2019-05-13T03:37:34.801Z,12.30
2019-05-13T03:40:05.906Z,12.40
2019-05-13T03:42:37.751Z,12.40
2019-05-13T03:45:08.494Z,12.40
2019-05-13T03:47:42.158Z,12.40
2019-05-13T03:50:13.826Z,12.30
2019-05-13T03:52:44.676Z,12.20
2019-05-13T03:55:16.070Z,12.20
2019-05-13T03:57:46.944Z,12.40
2019-05-13T04:00:17.919Z,12.40
2019-05-13T04:02:51.911Z,12.40
2019-05-13T04:05:22.879Z,12.40
2019-05-13T04:07:54.112Z,12.20
2019-05-13T04:10:25.045Z,12.20
2019-05-13T04:12:55.770Z,12.20
2019-05-13T04:15:26.514Z,12.20
2019-05-13T04:17:57.718Z,12.10
2019-05-13T04:20:28.504Z,12.10
2019-05-13T04:23:02.687Z,12.20
2019-05-13T04:25:32.330Z,12.30
2019-05-13T04:28:03.693Z,12.30
2019-05-13T04:30:34.560Z,12.40
2019-05-13T04:33:05.545Z,12.40
2019-05-13T04:35:36.454Z,12.40
2019-05-13T04:38:10.255Z,12.40
2019-05-13T04:40:42.491Z,12.40
2019-05-13T04:43:13.170Z,12.50
2019-05-13T04:45:44.340Z,12.60
2019-05-13T04:48:15.295Z,12.60
2019-05-13T04:50:46.470Z,12.70
2019-05-13T04:53:17.347Z,12.60
2019-05-13T04:55:48.172Z,12.60
2019-05-13T04:58:23.146Z,12.70
2019-05-13T05:01:26.420Z,12.80
2019-05-13T05:04:22.616Z,12.80
2019-05-13T05:07:04.385Z,12.70
2019-05-13T05:10:17.728Z,12.70
2019-05-13T05:13:07.269Z,12.50
2019-05-13T05:16:02.888Z,12.50
2019-05-13T05:19:07.705Z,12.50
2019-05-13T05:21:56.729Z,12.70
2019-05-13T05:24:53.963Z,12.90
2019-05-13T05:27:41.924Z,13.00
2019-05-13T05:30:51.863Z,13.00
2019-05-13T05:33:54.765Z,13.00
2019-05-13T05:37:03.009Z,12.90
2019-05-13T05:39:34.464Z,13.00
2019-05-13T05:42:06.964Z,13.20
2019-05-13T05:44:39.630Z,13.30
2019-05-13T05:47:12.789Z,13.40
2019-05-13T05:49:46.095Z,13.60
2019-05-13T05:52:18.409Z,13.70
2019-05-13T05:54:51.772Z,13.50
2019-05-13T05:57:24.498Z,13.30
2019-05-13T05:59:57.144Z,13.10
2019-05-13T06:02:32.218Z,13.10
2019-05-13T06:05:04.198Z,13.20
2019-05-13T06:07:37.019Z,13.20
2019-05-13T06:10:07.981Z,13.30
2019-05-13T06:12:39.345Z,13.40
2019-05-13T06:15:12.340Z,13.40
2019-05-13T06:17:43.138Z,13.40
2019-05-13T06:20:14.094Z,13.50
2019-05-13T06:22:45.089Z,13.50
2019-05-13T06:25:16.089Z,13.60
2019-05-13T06:27:46.926Z,13.70
2019-05-13T06:30:17.963Z,13.70
2019-05-13T06:32:48.796Z,13.70
2019-05-13T06:35:21.688Z,13.80
2019-05-13T06:37:52.201Z,14.10
2019-05-13T06:40:23.358Z,14.30
2019-05-13T06:42:54.385Z,14.50
2019-05-13T06:45:25.293Z,14.50
2019-05-13T06:47:56.309Z,14.60
2019-05-13T06:50:27.266Z,14.70
2019-05-13T06:52:58.289Z,14.80
2019-05-13T06:55:31.446Z,14.80
2019-05-13T06:58:02.228Z,15.00
2019-05-13T07:00:34.861Z,15.10
2019-05-13T07:03:05.926Z,15.20
2019-05-13T07:05:37.096Z,15.30
2019-05-13T07:08:08.249Z,15.40
2019-05-13T07:10:41.263Z,15.60
2019-05-13T07:13:11.658Z,15.80
2019-05-13T07:15:42.556Z,15.80
2019-05-13T07:18:16.064Z,15.60
2019-05-13T07:20:45.836Z,15.50
2019-05-13T07:23:16.669Z,15.40
2019-05-13T07:25:47.509Z,15.40
2019-05-13T07:28:18.265Z,15.50
2019-05-13T07:30:51.449Z,15.60
2019-05-13T07:33:21.593Z,15.60
2019-05-13T07:35:58.283Z,15.60
2019-05-13T07:38:26.129Z,15.80
2019-05-13T07:41:02.549Z,15.90
2019-05-13T07:43:33.840Z,16.20
2019-05-13T07:46:04.666Z,16.30
2019-05-13T07:48:41.425Z,16.50
2019-05-13T07:51:11.926Z,16.70
2019-05-13T07:53:43.349Z,16.60
2019-05-13T07:56:14.404Z,16.80
2019-05-13T07:58:45.446Z,16.90
2019-05-13T08:01:16.409Z,16.80
2019-05-13T08:03:47.279Z,16.80
2019-05-13T08:06:18.024Z,16.80
2019-05-13T08:08:48.955Z,16.90
2019-05-13T08:11:22.385Z,17.00
2019-05-13T08:13:52.744Z,17.30
2019-05-13T08:16:23.605Z,17.40
2019-05-13T08:18:54.339Z,17.40
2019-05-13T08:21:25.293Z,17.60
2019-05-13T08:23:56.150Z,17.70
2019-05-13T08:26:26.915Z,17.90
2019-05-13T08:29:02.160Z,18.00
2019-05-13T08:31:32.271Z,18.10
2019-05-13T08:34:02.834Z,18.30
2019-05-13T08:36:33.704Z,18.60
2019-05-13T08:39:06.554Z,18.90
2019-05-13T08:41:37.545Z,18.60
2019-05-13T08:44:08.379Z,18.60
2019-05-13T08:46:41.440Z,19.10
2019-05-13T08:49:12.447Z,19.30
2019-05-13T08:51:43.260Z,19.20
2019-05-13T08:54:14.144Z,19.50
2019-05-13T08:56:44.978Z,20.10
2019-05-13T08:59:15.799Z,20.50
2019-05-13T09:01:46.682Z,20.70
2019-05-13T09:04:17.494Z,20.50
2019-05-13T09:06:48.295Z,19.50
2019-05-13T09:09:19.271Z,19.00
2019-05-13T09:11:51.715Z,19.40
2019-05-13T09:14:22.594Z,19.30
2019-05-13T09:16:53.539Z,19.60
2019-05-13T09:19:24.338Z,20.10
2019-05-13T09:21:55.320Z,20.30
2019-05-13T09:24:34.110Z,20.70
2019-05-13T09:26:58.802Z,20.80
2019-05-13T09:29:31.912Z,20.40
2019-05-13T09:32:03.752Z,20.50
2019-05-13T09:34:35.619Z,20.60
2019-05-13T09:37:06.594Z,20.60
2019-05-13T09:39:37.339Z,20.60
2019-05-13T09:42:08.194Z,20.30
2019-05-13T09:44:41.737Z,20.10
2019-05-13T09:47:12.527Z,20.00
2019-05-13T09:49:43.690Z,19.90
2019-05-13T09:52:14.644Z,19.60
2019-05-13T09:54:45.484Z,19.60
2019-05-13T09:57:16.430Z,19.50
2019-05-13T09:59:47.519Z,19.50
2019-05-13T10:02:18.332Z,19.50
2019-05-13T10:04:51.248Z,19.80
2019-05-13T10:07:22.922Z,20.00
2019-05-13T10:09:54.020Z,20.10
2019-05-13T10:12:25.029Z,20.20
2019-05-13T10:14:56.034Z,20.10
2019-05-13T10:17:26.934Z,20.00
2019-05-13T10:19:57.713Z,20.10
2019-05-13T10:22:28.684Z,20.10
2019-05-13T10:25:02.131Z,20.00
2019-05-13T10:27:32.938Z,19.90
2019-05-13T10:30:04.283Z,19.50
2019-05-13T10:32:35.229Z,19.60
2019-05-13T10:35:06.885Z,19.60
2019-05-13T10:37:38.129Z,19.80
2019-05-13T10:40:09.243Z,19.60
2019-05-13T10:42:43.314Z,19.70
2019-05-13T10:45:14.326Z,19.60
2019-05-13T10:47:45.378Z,19.70
2019-05-13T10:50:16.304Z,19.90
2019-05-13T10:52:47.179Z,19.80
2019-05-13T10:55:18.203Z,19.80
2019-05-13T10:57:51.306Z,20.10
2019-05-13T11:00:26.106Z,20.20
2019-05-13T11:02:56.863Z,20.20
2019-05-13T11:05:27.605Z,20.20
2019-05-13T11:07:58.606Z,20.10
2019-05-13T11:10:33.841Z,20.40
2019-05-13T11:15:41.133Z,20.70
2019-05-13T11:18:19.097Z,20.90
2019-05-13T11:20:43.604Z,20.50
2019-05-13T11:23:14.655Z,20.60
2019-05-13T11:25:45.410Z,20.70
2019-05-13T11:28:16.163Z,20.90
2019-05-13T11:30:47.424Z,21.20
2019-05-13T11:33:18.744Z,21.40
2019-05-13T11:35:52.102Z,21.20
2019-05-13T11:38:22.381Z,21.10
2019-05-13T11:40:53.373Z,21.50
2019-05-13T11:43:27.993Z,21.10
2019-05-13T11:45:56.784Z,21.30
2019-05-13T11:48:27.549Z,21.90
2019-05-13T11:50:58.469Z,21.90
2019-05-13T11:53:33.421Z,22.00
2019-05-13T11:56:03.702Z,22.30
2019-05-13T11:58:34.719Z,22.40
2019-05-13T12:01:06.124Z,22.20
2019-05-13T12:03:36.940Z,22.60
2019-05-13T12:06:07.855Z,22.40
2019-05-13T12:08:38.678Z,22.70
2019-05-13T12:11:10.377Z,22.90
2019-05-13T12:13:42.609Z,22.90
2019-05-13T12:16:13.698Z,23.30
2019-05-13T12:18:44.489Z,23.30
2019-05-13T12:21:15.531Z,23.10
2019-05-13T12:23:46.339Z,22.80
2019-05-13T12:26:17.380Z,23.20
2019-05-13T12:28:48.348Z,23.00
2019-05-13T12:31:22.018Z,22.80
2019-05-13T12:33:52.530Z,23.00
2019-05-13T12:36:24.125Z,22.70
2019-05-13T12:38:55.495Z,22.60
2019-05-13T12:41:26.519Z,23.00
2019-05-13T12:43:57.379Z,23.20
2019-05-13T12:46:28.229Z,22.70
2019-05-13T12:48:59.178Z,22.30
2019-05-13T12:51:32.495Z,21.60
2019-05-13T12:54:03.748Z,21.40
2019-05-13T12:56:34.791Z,21.30
2019-05-13T12:59:05.549Z,21.20
2019-05-13T13:01:36.190Z,21.30
2019-05-13T13:04:07.604Z,21.40
2019-05-13T13:06:41.717Z,20.90
2019-05-13T13:09:12.768Z,20.80
2019-05-13T13:11:43.973Z,20.90
2019-05-13T13:14:17.375Z,21.00
2019-05-13T13:16:47.334Z,21.30
2019-05-13T13:19:18.114Z,20.70
2019-05-13T13:21:52.392Z,20.70
2019-05-13T13:24:23.561Z,20.80
2019-05-13T13:26:53.890Z,20.50
2019-05-13T13:29:25.159Z,20.80
2019-05-13T13:31:56.059Z,20.60
2019-05-13T13:34:27.059Z,20.30
2019-05-13T13:36:57.703Z,20.20
2019-05-13T13:39:28.414Z,20.10
2019-05-13T13:41:59.386Z,19.90
2019-05-13T13:44:34.938Z,20.10
2019-05-13T13:47:02.094Z,20.10
2019-05-13T13:49:34.886Z,20.10
2019-05-13T13:52:05.411Z,20.30
2019-05-13T13:54:36.534Z,20.30
2019-05-13T13:57:07.304Z,20.10
2019-05-13T14:00:11.582Z,20.10
2019-05-13T14:02:13.470Z,20.00
2019-05-13T14:04:43.224Z,19.90
2019-05-13T14:07:14.038Z,20.50
2019-05-13T14:07:28.120Z,19.70
2019-05-13T14:09:46.840Z,20.10
2019-05-13T14:12:17.833Z,19.80
2019-05-13T14:14:48.628Z,20.00
2019-05-13T14:17:21.795Z,20.00
2019-05-13T14:19:52.386Z,19.70
2019-05-13T14:22:23.374Z,19.60
2019-05-13T14:24:54.445Z,19.40
2019-05-13T14:27:25.344Z,19.40
2019-05-13T14:29:56.595Z,19.30
2019-05-13T14:32:27.374Z,19.30
2019-05-13T14:34:58.239Z,19.40
2019-05-13T14:37:31.324Z,19.40
2019-05-13T14:40:02.466Z,19.20
2019-05-13T14:42:33.510Z,19.00
2019-05-13T14:45:04.361Z,19.10
2019-05-13T14:47:35.204Z,19.20
2019-05-13T14:50:06.569Z,19.10
2019-05-13T14:52:37.325Z,19.10
2019-05-13T14:55:08.660Z,19.30
2019-05-13T14:57:41.326Z,19.30
2019-05-13T15:00:13.144Z,19.50
2019-05-13T15:02:44.034Z,19.60
2019-05-13T15:05:14.800Z,19.60
2019-05-13T15:07:45.563Z,19.50
2019-05-13T15:10:16.598Z,19.50
2019-05-13T15:12:47.323Z,19.60
2019-05-13T15:15:18.999Z,19.70
2019-05-13T15:17:51.756Z,19.60
2019-05-13T15:20:22.269Z,19.60
2019-05-13T15:22:53.169Z,19.60
2019-05-13T15:25:24.038Z,19.50
2019-05-13T15:27:55.433Z,19.40
2019-05-13T15:30:26.314Z,19.30
2019-05-13T15:32:56.964Z,19.30
2019-05-13T15:35:27.700Z,19.20
2019-05-13T15:37:58.638Z,19.30
2019-05-13T15:40:31.227Z,19.10
2019-05-13T15:43:02.545Z,19.10
2019-05-13T15:45:33.292Z,19.10
2019-05-13T15:48:04.025Z,19.00
2019-05-13T15:50:34.882Z,19.10
2019-05-13T15:53:06.039Z,19.10
2019-05-13T15:55:36.980Z,19.20
2019-05-13T15:58:08.230Z,19.30
2019-05-13T16:00:41.701Z,19.20
2019-05-13T16:03:12.339Z,19.20
2019-05-13T16:05:43.394Z,19.20
2019-05-13T16:08:14.099Z,19.10
2019-05-13T16:10:45.105Z,19.10
2019-05-13T16:13:15.880Z,19.10
2019-05-13T16:15:46.569Z,19.30
2019-05-13T16:18:17.624Z,19.20
2019-05-13T16:20:48.550Z,19.40
2019-05-13T16:23:21.298Z,19.30
2019-05-13T16:25:52.184Z,19.40
2019-05-13T16:28:23.370Z,19.40
2019-05-13T16:30:54.524Z,19.40
2019-05-13T16:33:25.632Z,19.10
2019-05-13T16:35:56.496Z,19.10
2019-05-13T16:38:27.359Z,19.40
2019-05-13T16:40:58.204Z,19.70
2019-05-13T16:43:29.055Z,19.70
2019-05-13T16:45:59.985Z,19.80
2019-05-13T16:48:32.286Z,19.90
2019-05-13T16:51:03.324Z,20.00
2019-05-13T16:53:34.167Z,19.90
2019-05-13T16:56:05.420Z,19.80
2019-05-13T16:58:36.259Z,19.90
2019-05-13T17:01:07.041Z,19.90
2019-05-13T17:03:37.990Z,19.90
2019-05-13T17:06:08.865Z,20.00
2019-05-13T17:08:42.213Z,19.90
2019-05-13T17:11:12.184Z,19.80
2019-05-13T17:13:43.179Z,19.90
2019-05-13T17:16:14.009Z,19.80
2019-05-13T17:18:44.794Z,19.70
2019-05-13T17:21:15.571Z,19.70
2019-05-13T17:23:46.499Z,19.60
2019-05-13T17:26:17.564Z,19.40
2019-05-13T17:28:48.608Z,19.40
2019-05-13T17:31:21.733Z,19.40
2019-05-13T17:33:52.168Z,19.10
2019-05-13T17:36:23.116Z,18.90
2019-05-13T17:38:54.469Z,18.90
2019-05-13T17:41:25.430Z,18.80
2019-05-13T17:43:56.199Z,18.80
2019-05-13T17:46:27.164Z,18.60
2019-05-13T17:48:58.129Z,18.60
2019-05-13T17:51:28.980Z,18.50
2019-05-13T17:54:01.430Z,18.20
2019-05-13T17:56:32.529Z,18.00
2019-05-13T17:59:03.468Z,17.90
2019-05-13T18:01:34.559Z,17.80
2019-05-13T18:04:05.440Z,17.70
2019-05-13T18:06:36.389Z,17.60
2019-05-13T18:09:08.850Z,17.50
2019-05-13T18:11:41.751Z,17.40
2019-05-13T18:14:12.469Z,17.40
2019-05-13T18:16:43.426Z,17.80
2019-05-13T18:19:14.244Z,17.90
2019-05-13T18:21:45.179Z,18.10
2019-05-13T18:24:15.915Z,18.80
2019-05-13T18:26:46.791Z,19.20
2019-05-13T18:29:17.840Z,19.40
2019-05-13T18:31:48.626Z,19.30
2019-05-13T18:34:21.459Z,19.10
2019-05-13T18:36:52.294Z,18.70
2019-05-13T18:39:23.240Z,18.20
2019-05-13T18:41:54.199Z,17.50
2019-05-13T18:44:25.094Z,17.00
2019-05-13T18:46:56.300Z,16.90
2019-05-13T18:49:27.340Z,16.70
2019-05-13T18:51:58.384Z,16.60
2019-05-13T18:54:31.353Z,16.50
2019-05-13T18:57:02.139Z,16.40
2019-05-13T18:59:33.162Z,16.30
2019-05-13T19:02:04.165Z,16.20
2019-05-13T19:04:35.295Z,16.10
2019-05-13T19:07:07.835Z,16.00
2019-05-13T19:09:41.596Z,15.90
2019-05-13T19:12:11.839Z,15.90
2019-05-13T19:14:42.815Z,15.70
2019-05-13T19:17:13.859Z,15.70
2019-05-13T19:19:44.941Z,15.50
2019-05-13T19:22:15.875Z,15.50
2019-05-13T19:24:47.084Z,15.50
2019-05-13T19:27:18.104Z,15.50
2019-05-13T19:29:49.134Z,15.40
2019-05-13T19:32:21.888Z,15.30
2019-05-13T19:34:53.232Z,15.20
2019-05-13T19:37:24.214Z,15.10
2019-05-13T19:39:55.805Z,15.10
2019-05-13T19:42:26.974Z,15.10
2019-05-13T19:44:58.375Z,15.10
2019-05-13T19:47:30.015Z,15.00
2019-05-13T19:50:05.006Z,14.90
2019-05-13T19:52:41.447Z,14.90
2019-05-13T19:55:15.719Z,14.80
2019-05-13T19:57:51.647Z,14.80
2019-05-13T20:00:28.660Z,14.80
2019-05-13T20:02:59.967Z,14.80
2019-05-13T20:05:31.848Z,14.80
2019-05-13T20:08:03.148Z,14.80
2019-05-13T20:10:34.944Z,14.80
2019-05-13T20:13:05.984Z,14.80
2019-05-13T20:15:37.085Z,14.70
2019-05-13T20:18:08.311Z,14.70
2019-05-13T20:20:41.199Z,14.60
2019-05-13T20:23:12.196Z,14.60
2019-05-13T20:25:43.149Z,14.60
2019-05-13T20:28:14.044Z,14.60
2019-05-13T20:30:45.541Z,14.50
2019-05-13T20:33:16.644Z,14.50
2019-05-13T20:35:47.975Z,14.50
2019-05-13T20:38:19.099Z,14.40
2019-05-13T20:40:51.963Z,14.40
2019-05-13T20:43:23.410Z,14.30
2019-05-13T20:45:54.619Z,14.20
2019-05-13T20:48:25.604Z,14.20
2019-05-13T20:50:56.574Z,14.00
2019-05-13T20:53:27.540Z,14.00
2019-05-13T20:55:58.551Z,14.00
2019-05-13T20:58:31.594Z,13.80
2019-05-13T21:01:02.489Z,13.80
2019-05-13T21:03:33.894Z,13.70
2019-05-13T21:06:04.718Z,13.70
2019-05-13T21:08:35.486Z,13.70
2019-05-13T21:11:06.524Z,13.70
2019-05-13T21:13:37.433Z,13.60
2019-05-13T21:16:08.389Z,13.60
2019-05-13T21:18:39.248Z,13.60
2019-05-13T21:21:11.643Z,13.60
2019-05-13T21:23:42.441Z,13.50
2019-05-13T21:26:15.641Z,13.50
2019-05-13T21:28:45.854Z,13.40
2019-05-13T21:31:16.749Z,13.40
2019-05-13T21:33:47.590Z,13.30
2019-05-13T21:36:18.421Z,13.20
2019-05-13T21:38:49.373Z,13.40
2019-05-13T21:41:21.185Z,13.40
2019-05-13T21:43:52.217Z,13.50
2019-05-13T21:46:23.174Z,13.60
2019-05-13T21:48:54.115Z,13.60
2019-05-13T21:51:25.119Z,13.60
2019-05-13T21:53:56.204Z,13.60
2019-05-13T21:56:27.160Z,13.60
2019-05-13T21:58:58.069Z,13.70
2019-05-13T22:01:31.343Z,13.60
2019-05-13T22:04:01.774Z,13.60
2019-05-13T22:06:32.825Z,13.60
2019-05-13T22:09:04.029Z,13.50
2019-05-13T22:11:35.231Z,13.50
2019-05-13T22:14:06.186Z,13.50
2019-05-13T22:16:36.936Z,13.50
2019-05-13T22:19:07.751Z,13.40
2019-05-13T22:21:38.755Z,13.50
2019-05-13T22:24:11.426Z,13.50
2019-05-13T22:26:42.225Z,13.50
2019-05-13T22:29:13.449Z,13.50
2019-05-13T22:31:44.519Z,13.50
2019-05-13T22:34:15.289Z,13.50
2019-05-13T22:36:46.209Z,13.40
2019-05-13T22:39:16.994Z,13.40
2019-05-13T22:41:47.939Z,13.40
2019-05-13T22:44:21.654Z,13.40
2019-05-13T22:46:51.796Z,13.40
2019-05-13T22:49:22.783Z,13.40
2019-05-13T22:51:53.711Z,13.40
2019-05-13T22:54:24.429Z,13.40
2019-05-13T22:56:55.414Z,13.30
2019-05-13T22:59:26.279Z,13.10
2019-05-13T23:01:57.162Z,13.00
2019-05-13T23:04:27.989Z,13.00
2019-05-13T23:07:01.132Z,12.90
2019-05-13T23:09:32.183Z,12.80
2019-05-13T23:12:03.388Z,12.80
2019-05-13T23:14:34.289Z,12.80
2019-05-13T23:17:05.104Z,12.80
2019-05-13T23:19:36.033Z,12.90
2019-05-13T23:22:07.464Z,12.90
2019-05-13T23:24:38.261Z,12.80
2019-05-13T23:27:10.986Z,12.80
2019-05-13T23:29:41.469Z,12.70
2019-05-13T23:32:12.285Z,12.80
2019-05-13T23:34:43.151Z,12.70
2019-05-13T23:37:13.981Z,12.70
2019-05-13T23:39:44.854Z,12.70
2019-05-13T23:42:16.019Z,12.50
2019-05-13T23:44:46.825Z,12.40
2019-05-13T23:47:17.694Z,12.20
2019-05-13T23:49:48.638Z,12.20
2019-05-13T23:52:21.589Z,12.20
2019-05-13T23:54:51.920Z,12.20
2019-05-13T23:57:22.869Z,12.10
2019-05-13T23:59:53.716Z,12.10
